Connecticut River @ Holyoke, Ma

Connecticut River at Holyoke
 Total Drainage Area: 8,309 sq. miles 
 Drainage Area Controlled by Corps Dams: 1,154 sq. miles (14%) 
 Warning Flow/Stage: 75,800 cfs / 22.0 feet 
 Flood Flow/Stage: 104,600 cfs / 26.5 feet 
Date Time
(Eastern)
Stage
(ft)
Flow
(cfs)
CSM
May-28 11:30 am 6.75 6,973 .8
May-28 10:30 am 6.86 7,247 .9
May-28 09:30 am 6.92 7,398 .9
May-28 08:30 am 6.96 7,499 .9
May-28 07:30 am 7.02 7,651 .9
May-28 06:30 am 7.10 7,856 1.0
May-28 05:30 am 7.12 7,907 1.0
May-28 04:30 am 7.14 7,958 1.0
May-28 03:30 am 7.07 7,779 .9
May-28 02:30 am 7.04 7,702 .9
May-28 01:30 am 7.04 7,702 .9
May-28 12:30 am 7.08 7,804 .9
May-27 11:30 pm 7.11 7,881 1.0
May-27 10:30 pm 7.14 7,958 1.0
May-27 09:30 pm 7.17 8,036 1.0
May-27 08:30 pm 7.20 8,113 1.0
May-27 07:30 pm 7.27 8,295 1.0
May-27 06:30 pm 7.34 8,478 1.0
May-27 05:30 pm 7.38 8,583 1.0
May-27 04:30 pm 7.46 8,795 1.1
May-27 03:30 pm 7.52 8,954 1.1
May-27 02:30 pm 7.49 8,874 1.1
May-27 01:30 pm 7.44 8,742 1.1
May-27 12:30 pm 7.38 8,583 1.0
May-27 11:30 am 7.25 8,243 1.0
Report Generated May 28, 2022 04:25 pm